createdAt,value
2019-01-08T00:01:28.901Z,8.10
2019-01-08T00:03:58.283Z,8.10
2019-01-08T00:06:27.695Z,8.10
2019-01-08T00:08:57.040Z,8.00
2019-01-08T00:11:26.395Z,8.00
2019-01-08T00:13:55.767Z,7.90
2019-01-08T00:16:25.113Z,7.90
2019-01-08T00:18:54.422Z,7.90
2019-01-08T00:21:23.710Z,7.80
2019-01-08T00:27:25.654Z,7.80
2019-01-08T00:29:55.012Z,7.80
2019-01-08T00:32:24.385Z,7.70
2019-01-08T00:34:53.594Z,7.70
2019-01-08T00:37:22.923Z,7.70
2019-01-08T00:39:52.314Z,7.70
2019-01-08T00:42:21.630Z,7.70
2019-01-08T00:44:50.827Z,7.70
2019-01-08T00:47:20.214Z,7.70
2019-01-08T00:49:49.613Z,7.70
2019-01-08T00:52:19.083Z,7.70
2019-01-08T00:54:48.485Z,7.80
2019-01-08T00:57:17.955Z,7.80
2019-01-08T00:59:47.249Z,7.80
2019-01-08T01:02:16.644Z,7.80
2019-01-08T01:04:46.030Z,7.90
2019-01-08T01:07:45.399Z,7.90
2019-01-08T01:10:14.884Z,7.90
2019-01-08T01:12:44.314Z,7.90
2019-01-08T01:15:13.685Z,7.90
2019-01-08T01:17:43.085Z,7.90
2019-01-08T01:20:12.394Z,7.80
2019-01-08T01:22:41.693Z,7.80
2019-01-08T01:25:11.158Z,7.80
2019-01-08T01:27:40.480Z,7.70
2019-01-08T01:30:09.837Z,7.70
2019-01-08T01:32:39.206Z,7.70
2019-01-08T01:35:08.597Z,7.60
2019-01-08T01:37:37.857Z,7.60
2019-01-08T01:40:07.292Z,7.50
2019-01-08T01:42:36.653Z,7.50
2019-01-08T01:45:06.124Z,7.50
2019-01-08T01:47:35.489Z,7.50
2019-01-08T01:50:05.652Z,7.40
2019-01-08T01:52:35.030Z,7.40
2019-01-08T01:55:04.409Z,7.40
2019-01-08T01:57:33.848Z,7.30
2019-01-08T02:00:03.187Z,7.30
2019-01-08T02:02:32.630Z,7.30
2019-01-08T02:05:01.868Z,7.20
2019-01-08T02:07:31.277Z,7.30
2019-01-08T02:10:00.647Z,7.20
2019-01-08T02:12:30.055Z,7.20
2019-01-08T02:14:59.439Z,7.20
2019-01-08T02:17:28.765Z,7.20
2019-01-08T02:19:58.151Z,7.30
2019-01-08T02:22:27.551Z,7.30
2019-01-08T02:24:56.849Z,7.30
2019-01-08T02:27:26.150Z,7.30
2019-01-08T02:29:55.528Z,7.30
2019-01-08T02:32:24.962Z,7.30
2019-01-08T02:34:54.350Z,7.30
2019-01-08T02:37:23.709Z,7.20
2019-01-08T02:39:53.119Z,7.20
2019-01-08T02:42:22.410Z,7.20
2019-01-08T02:44:51.783Z,7.20
2019-01-08T02:47:21.162Z,7.20
2019-01-08T02:49:50.638Z,7.20
2019-01-08T02:52:20.029Z,7.20
2019-01-08T02:54:49.498Z,7.30
2019-01-08T02:57:18.865Z,7.30
2019-01-08T02:59:48.908Z,7.40
2019-01-08T03:02:18.347Z,7.40
2019-01-08T03:04:47.691Z,7.40
2019-01-08T03:07:17.137Z,7.50
2019-01-08T03:09:46.531Z,7.50
2019-01-08T03:12:15.929Z,7.50
2019-01-08T03:14:45.292Z,7.60
2019-01-08T03:17:14.601Z,7.60
2019-01-08T03:19:43.964Z,7.60
2019-01-08T03:22:13.336Z,7.60
2019-01-08T03:24:42.728Z,7.60
2019-01-08T03:27:12.124Z,7.50
2019-01-08T03:29:41.506Z,7.50
2019-01-08T03:32:10.860Z,7.50
2019-01-08T03:34:40.174Z,7.40
2019-01-08T03:37:09.491Z,7.50
2019-01-08T03:39:38.882Z,7.50
2019-01-08T03:42:08.267Z,7.50
2019-01-08T03:44:37.597Z,7.50
2019-01-08T03:47:06.968Z,7.50
2019-01-08T03:49:36.379Z,7.50
2019-01-08T03:52:05.801Z,7.50
2019-01-08T03:54:35.125Z,7.50
2019-01-08T03:57:04.549Z,7.50
2019-01-08T03:59:41.712Z,7.50
2019-01-08T04:02:04.807Z,7.40
2019-01-08T04:04:34.033Z,7.40
2019-01-08T04:07:03.396Z,7.30
2019-01-08T04:09:32.793Z,7.30
2019-01-08T04:12:02.217Z,7.30
2019-01-08T04:14:31.565Z,7.40
2019-01-08T04:17:00.964Z,7.40
2019-01-08T04:19:30.337Z,7.40
2019-01-08T04:21:59.705Z,7.50
2019-01-08T04:24:29.148Z,7.50
2019-01-08T04:26:58.547Z,7.50
2019-01-08T04:29:27.923Z,7.50
2019-01-08T04:31:57.336Z,7.50
2019-01-08T04:34:26.732Z,7.50
2019-01-08T04:36:56.146Z,7.50
2019-01-08T04:39:25.409Z,7.50
2019-01-08T04:41:54.863Z,7.50
2019-01-08T04:44:24.167Z,7.50
2019-01-08T04:46:53.567Z,7.50
2019-01-08T04:49:22.979Z,7.50
2019-01-08T04:51:52.275Z,7.50
2019-01-08T04:54:21.593Z,7.60
2019-01-08T04:56:50.958Z,7.60
2019-01-08T04:59:20.277Z,7.60
2019-01-08T05:01:49.654Z,7.50
2019-01-08T05:04:19.078Z,7.60
2019-01-08T05:06:49.658Z,7.60
2019-01-08T05:09:19.104Z,7.60
2019-01-08T05:11:48.432Z,7.60
2019-01-08T05:14:17.794Z,7.60
2019-01-08T05:16:47.208Z,7.60
2019-01-08T05:19:16.448Z,7.60
2019-01-08T05:21:45.771Z,7.30
2019-01-08T05:24:15.097Z,6.90
2019-01-08T05:26:44.453Z,6.60
2019-01-08T05:29:13.829Z,6.40
2019-01-08T05:31:43.125Z,6.30
2019-01-08T05:34:12.503Z,6.30
2019-01-08T05:36:41.829Z,6.40
2019-01-08T05:39:11.123Z,6.50
2019-01-08T05:41:40.503Z,6.50
2019-01-08T05:44:09.830Z,6.60
2019-01-08T05:46:39.221Z,6.70
2019-01-08T05:49:08.459Z,6.70
2019-01-08T05:51:37.798Z,6.80
2019-01-08T05:54:07.110Z,6.80
2019-01-08T05:56:36.492Z,6.80
2019-01-08T05:59:05.750Z,6.80
2019-01-08T06:01:35.129Z,6.90
2019-01-08T06:04:04.484Z,6.90
2019-01-08T06:06:33.746Z,6.90
2019-01-08T06:09:03.261Z,6.80
2019-01-08T06:11:32.659Z,6.80
2019-01-08T06:14:02.021Z,6.70
2019-01-08T06:16:31.439Z,6.80
2019-01-08T06:19:00.839Z,6.70
2019-01-08T06:21:30.191Z,6.70
2019-01-08T06:23:59.512Z,6.80
2019-01-08T06:26:28.919Z,6.80
2019-01-08T06:28:58.219Z,6.80
2019-01-08T06:31:27.540Z,6.80
2019-01-08T06:33:56.852Z,6.80
2019-01-08T06:36:26.381Z,6.80
2019-01-08T06:38:58.696Z,6.80
2019-01-08T06:41:28.018Z,6.90
2019-01-08T06:43:57.333Z,6.90
2019-01-08T06:46:26.704Z,7.00
2019-01-08T06:48:55.991Z,7.00
2019-01-08T06:51:25.379Z,7.00
2019-01-08T06:53:54.702Z,7.00
2019-01-08T06:56:24.023Z,7.00
2019-01-08T06:58:53.464Z,6.90
2019-01-08T07:01:22.846Z,6.90
2019-01-08T07:03:52.257Z,6.90
2019-01-08T07:06:21.639Z,6.90
2019-01-08T07:08:51.010Z,6.90
2019-01-08T07:11:20.287Z,6.90
2019-01-08T07:13:51.331Z,6.80
2019-01-08T07:16:20.792Z,6.80
2019-01-08T07:18:50.182Z,6.80
2019-01-08T07:21:19.560Z,6.80
2019-01-08T07:23:49.018Z,6.70
2019-01-08T07:26:18.368Z,6.70
2019-01-08T07:28:47.818Z,6.70
2019-01-08T07:31:17.123Z,6.70
2019-01-08T07:33:48.233Z,6.70
2019-01-08T07:36:18.537Z,6.70
2019-01-08T07:38:47.896Z,6.70
2019-01-08T07:41:17.164Z,6.70
2019-01-08T07:43:46.517Z,6.70
2019-01-08T07:46:16.993Z,6.70
2019-01-08T07:48:46.383Z,6.80
2019-01-08T07:51:15.766Z,6.80
2019-01-08T07:53:45.138Z,6.80
2019-01-08T07:56:14.510Z,6.90
2019-01-08T07:58:43.958Z,6.90
2019-01-08T08:01:13.202Z,6.90
2019-01-08T08:03:42.614Z,6.90
2019-01-08T08:06:11.963Z,6.90
2019-01-08T08:08:41.298Z,6.90
2019-01-08T08:11:10.729Z,6.80
2019-01-08T08:13:40.057Z,6.80
2019-01-08T08:16:09.410Z,6.80
2019-01-08T08:18:38.790Z,6.80
2019-01-08T08:21:08.140Z,6.80
2019-01-08T08:23:37.512Z,6.90
2019-01-08T08:26:07.022Z,6.90
2019-01-08T08:28:36.350Z,7.00
2019-01-08T08:31:05.719Z,7.00
2019-01-08T08:33:35.026Z,7.10
2019-01-08T08:36:04.399Z,7.10
2019-01-08T08:38:33.751Z,7.10
2019-01-08T08:41:03.126Z,7.10
2019-01-08T08:43:32.459Z,7.10
2019-01-08T08:46:01.780Z,7.10
2019-01-08T08:48:31.098Z,7.10
2019-01-08T08:51:00.465Z,7.10
2019-01-08T08:53:29.730Z,7.10
2019-01-08T08:55:59.096Z,7.20
2019-01-08T08:58:28.474Z,7.20
2019-01-08T09:00:57.800Z,7.20
2019-01-08T09:03:27.144Z,7.20
2019-01-08T09:05:56.522Z,7.20
2019-01-08T09:08:25.879Z,7.20
2019-01-08T09:10:55.320Z,7.30
2019-01-08T09:13:24.737Z,7.30
2019-01-08T09:15:54.121Z,7.30
2019-01-08T09:18:23.505Z,7.30
2019-01-08T09:20:52.914Z,7.30
2019-01-08T09:23:22.293Z,7.30
2019-01-08T09:25:51.595Z,7.30
2019-01-08T09:28:21.015Z,7.30
2019-01-08T09:30:50.386Z,7.40
2019-01-08T09:33:19.718Z,7.40
2019-01-08T09:35:50.760Z,7.50
2019-01-08T09:38:20.170Z,7.50
2019-01-08T09:40:49.567Z,7.50
2019-01-08T09:43:18.954Z,7.60
2019-01-08T09:45:48.231Z,7.60
2019-01-08T09:48:17.649Z,7.70
2019-01-08T09:50:47.020Z,7.70
2019-01-08T09:53:16.373Z,7.80
2019-01-08T09:55:45.737Z,7.80
2019-01-08T09:58:15.097Z,7.80
2019-01-08T10:00:44.489Z,7.80
2019-01-08T10:03:13.955Z,7.80
2019-01-08T10:05:43.384Z,7.70
2019-01-08T10:08:12.773Z,7.60
2019-01-08T10:10:42.137Z,7.60
2019-01-08T10:13:11.386Z,7.60
2019-01-08T10:15:40.824Z,7.60
2019-01-08T10:18:10.225Z,7.60
2019-01-08T10:20:39.607Z,7.60
2019-01-08T10:23:10.255Z,7.60
2019-01-08T10:25:39.850Z,7.60
2019-01-08T10:28:09.125Z,7.70
2019-01-08T10:30:38.476Z,7.70
2019-01-08T10:33:07.863Z,7.80
2019-01-08T10:35:37.265Z,7.80
2019-01-08T10:38:06.647Z,7.80
2019-01-08T10:40:36.071Z,7.90
2019-01-08T10:43:05.368Z,8.00
2019-01-08T10:45:34.777Z,8.00
2019-01-08T10:48:04.226Z,8.10
2019-01-08T10:50:33.606Z,8.20
2019-01-08T10:53:02.980Z,8.10
2019-01-08T10:55:32.362Z,8.20
2019-01-08T10:58:01.712Z,8.20
2019-01-08T11:00:31.059Z,8.20
2019-01-08T11:03:00.812Z,8.20
2019-01-08T11:05:30.219Z,8.20
2019-01-08T11:08:01.895Z,8.30
2019-01-08T11:10:31.277Z,8.30
2019-01-08T11:13:00.542Z,8.40
2019-01-08T11:15:29.920Z,8.40
2019-01-08T11:17:59.225Z,8.50
2019-01-08T11:20:28.602Z,8.50
2019-01-08T11:22:57.975Z,8.50
2019-01-08T11:25:31.741Z,8.50
2019-01-08T11:28:01.165Z,8.40
2019-01-08T11:30:30.517Z,8.40
2019-01-08T11:32:59.809Z,8.30
2019-01-08T11:35:29.201Z,8.30
2019-01-08T11:37:58.561Z,8.30
2019-01-08T11:40:27.955Z,8.40
2019-01-08T11:42:57.331Z,8.40
2019-01-08T11:45:26.595Z,8.50
2019-01-08T11:48:03.562Z,8.50
2019-01-08T11:50:26.832Z,8.60
2019-01-08T11:52:56.144Z,8.60
2019-01-08T11:55:25.572Z,8.70
2019-01-08T11:57:54.934Z,8.70
2019-01-08T12:00:24.316Z,8.80
2019-01-08T12:02:53.637Z,8.90
2019-01-08T12:05:22.952Z,8.90
2019-01-08T12:07:52.371Z,8.80
2019-01-08T12:10:21.767Z,8.80
2019-01-08T12:12:53.147Z,8.80
2019-01-08T12:15:22.239Z,8.70
2019-01-08T12:17:51.622Z,8.80
2019-01-08T12:20:20.950Z,8.80
2019-01-08T12:22:50.407Z,8.80
2019-01-08T12:25:19.730Z,8.90
2019-01-08T12:27:49.081Z,8.80
2019-01-08T12:30:18.466Z,8.60
2019-01-08T12:32:47.770Z,8.50
2019-01-08T12:35:17.088Z,8.50
2019-01-08T12:37:46.429Z,8.40
2019-01-08T12:40:15.778Z,8.40
2019-01-08T12:42:45.148Z,8.40
2019-01-08T12:45:14.721Z,8.50
2019-01-08T12:47:44.015Z,8.60
2019-01-08T12:50:13.387Z,8.60
2019-01-08T12:52:43.093Z,8.70
2019-01-08T12:55:13.105Z,8.70
2019-01-08T12:57:42.609Z,8.80
2019-01-08T13:00:12.185Z,8.80
2019-01-08T13:02:41.444Z,8.70
2019-01-08T13:05:10.783Z,8.70
2019-01-08T13:07:40.109Z,8.70
2019-01-08T13:10:09.515Z,8.70
2019-01-08T13:12:38.890Z,8.70
2019-01-08T13:15:08.344Z,8.70
2019-01-08T13:17:37.682Z,8.70
2019-01-08T13:20:07.377Z,8.70
2019-01-08T13:22:36.772Z,8.80
2019-01-08T13:25:06.242Z,8.80
2019-01-08T13:27:36.878Z,8.80
2019-01-08T13:30:06.881Z,8.80
2019-01-08T13:32:36.246Z,8.80
2019-01-08T13:35:05.933Z,8.80
2019-01-08T13:37:35.335Z,8.80
2019-01-08T13:40:04.819Z,8.80
2019-01-08T13:42:34.285Z,8.80
2019-01-08T13:45:03.608Z,8.70
2019-01-08T13:47:32.927Z,8.60
2019-01-08T13:50:02.287Z,8.50
2019-01-08T13:52:31.699Z,8.50
2019-01-08T13:55:01.305Z,8.40
2019-01-08T13:57:31.085Z,8.40
2019-01-08T14:00:00.490Z,8.50
2019-01-08T14:02:32.049Z,8.50
2019-01-08T14:05:00.807Z,8.50
2019-01-08T14:07:30.170Z,8.60
2019-01-08T14:09:59.592Z,8.60
2019-01-08T14:12:28.964Z,8.60
2019-01-08T14:14:58.324Z,8.60
2019-01-08T14:17:27.616Z,8.60
2019-01-08T14:19:56.994Z,8.60
2019-01-08T14:22:26.373Z,8.60
2019-01-08T14:24:55.760Z,8.60
2019-01-08T14:27:25.320Z,8.50
2019-01-08T14:29:54.755Z,8.50
2019-01-08T14:32:24.127Z,8.50
2019-01-08T14:34:54.030Z,8.40
2019-01-08T14:37:23.434Z,8.40
2019-01-08T14:39:52.792Z,8.40
2019-01-08T14:42:22.204Z,8.40
2019-01-08T14:44:51.527Z,8.30
2019-01-08T14:47:20.944Z,8.30
2019-01-08T14:49:50.387Z,8.20
2019-01-08T14:52:19.828Z,8.20
2019-01-08T14:54:49.209Z,8.20
2019-01-08T14:57:18.475Z,8.20
2019-01-08T14:59:47.883Z,8.20
2019-01-08T15:02:17.260Z,8.10
2019-01-08T15:04:46.623Z,8.10
2019-01-08T15:07:16.022Z,8.10
2019-01-08T15:09:45.321Z,8.10
2019-01-08T15:12:14.705Z,8.10
2019-01-08T15:14:48.075Z,8.00
2019-01-08T15:17:17.401Z,8.00
2019-01-08T15:19:46.836Z,8.00
2019-01-08T15:22:17.063Z,7.90
2019-01-08T15:24:46.449Z,7.90
2019-01-08T15:27:15.813Z,7.90
2019-01-08T15:29:45.196Z,7.90
2019-01-08T15:32:14.613Z,7.90
2019-01-08T15:34:44.019Z,7.80
2019-01-08T15:37:13.288Z,7.80
2019-01-08T15:39:42.714Z,7.70
2019-01-08T15:42:12.093Z,7.70
2019-01-08T15:44:41.442Z,7.70
2019-01-08T15:47:10.810Z,7.70
2019-01-08T15:49:40.225Z,7.70
2019-01-08T15:52:09.501Z,7.70
2019-01-08T15:54:38.810Z,7.70
2019-01-08T15:57:08.186Z,7.70
2019-01-08T15:59:37.530Z,7.60
2019-01-08T16:02:06.926Z,7.60
2019-01-08T16:04:36.345Z,7.60
2019-01-08T16:07:05.769Z,7.60
2019-01-08T16:09:35.136Z,7.50
2019-01-08T16:12:04.907Z,7.60
2019-01-08T16:14:34.341Z,7.50
2019-01-08T16:17:03.633Z,7.50
2019-01-08T16:19:32.964Z,7.60
2019-01-08T16:22:02.358Z,7.60
2019-01-08T16:24:31.808Z,7.60
2019-01-08T16:27:01.195Z,7.50
2019-01-08T16:29:30.608Z,7.60
2019-01-08T16:32:00.012Z,7.60
2019-01-08T16:34:29.516Z,7.60
2019-01-08T16:36:58.928Z,7.60
2019-01-08T16:39:30.956Z,7.60
2019-01-08T16:42:00.327Z,7.60
2019-01-08T16:44:29.773Z,7.60
2019-01-08T16:47:00.495Z,7.60
2019-01-08T16:49:29.884Z,7.60
2019-01-08T16:51:59.233Z,7.60
2019-01-08T16:54:28.477Z,7.60
2019-01-08T16:56:57.858Z,7.50
2019-01-08T16:59:27.179Z,7.50
2019-01-08T17:01:56.493Z,7.50
2019-01-08T17:04:25.863Z,7.50
2019-01-08T17:06:55.252Z,7.50
2019-01-08T17:09:24.612Z,7.50
2019-01-08T17:11:54.055Z,7.50
2019-01-08T17:14:23.426Z,7.50
2019-01-08T17:16:52.905Z,7.50
2019-01-08T17:19:22.328Z,7.40
2019-01-08T17:21:52.273Z,7.40
2019-01-08T17:24:21.685Z,7.40
2019-01-08T17:26:50.984Z,7.40
2019-01-08T17:29:20.256Z,7.40
2019-01-08T17:31:49.547Z,7.40
2019-01-08T17:34:18.910Z,7.40
2019-01-08T17:36:48.226Z,7.40
2019-01-08T17:39:18.566Z,7.40
2019-01-08T17:41:48.025Z,7.40
2019-01-08T17:44:17.378Z,7.40
2019-01-08T17:46:46.932Z,7.40
2019-01-08T17:49:16.252Z,7.40
2019-01-08T17:51:45.648Z,7.40
2019-01-08T17:54:15.168Z,7.40
2019-01-08T17:56:44.488Z,7.40
2019-01-08T17:59:16.133Z,7.30
2019-01-08T18:01:58.405Z,7.30
2019-01-08T18:04:28.111Z,7.30
2019-01-08T18:06:57.481Z,7.30
2019-01-08T18:09:26.839Z,7.30
2019-01-08T18:11:56.212Z,7.30
2019-01-08T18:14:25.591Z,7.40
2019-01-08T18:16:55.212Z,7.40
2019-01-08T18:19:24.634Z,7.40
2019-01-08T18:21:54.045Z,7.40
2019-01-08T18:24:23.486Z,7.40
2019-01-08T18:26:52.790Z,7.40
2019-01-08T18:29:22.147Z,7.40
2019-01-08T18:31:51.542Z,7.40
2019-01-08T18:34:20.893Z,7.30
2019-01-08T18:36:50.267Z,7.30
2019-01-08T18:39:19.696Z,7.30
2019-01-08T18:41:49.327Z,7.30
2019-01-08T18:44:18.703Z,7.30
2019-01-08T18:46:48.091Z,7.20
2019-01-08T18:49:17.489Z,7.20
2019-01-08T18:51:46.852Z,7.20
2019-01-08T18:54:16.205Z,7.20
2019-01-08T18:56:45.422Z,7.20
2019-01-08T18:59:14.819Z,7.10
2019-01-08T19:01:44.198Z,7.10
2019-01-08T19:04:13.798Z,7.10
2019-01-08T19:06:43.163Z,7.10
2019-01-08T19:09:35.953Z,7.10
2019-01-08T19:12:07.123Z,7.10
2019-01-08T19:14:41.293Z,7.10
2019-01-08T19:17:10.741Z,7.10
2019-01-08T19:19:42.454Z,7.10
2019-01-08T19:22:11.810Z,7.20
2019-01-08T19:24:41.218Z,7.20
2019-01-08T19:27:10.495Z,7.20
2019-01-08T19:29:39.842Z,7.20
2019-01-08T19:32:09.214Z,7.20
2019-01-08T19:34:38.584Z,7.20
2019-01-08T19:37:07.886Z,7.20
2019-01-08T19:39:37.289Z,7.20
2019-01-08T19:42:06.741Z,7.20
2019-01-08T19:44:36.144Z,7.20
2019-01-08T19:47:05.650Z,7.20
2019-01-08T19:49:34.940Z,7.20
2019-01-08T19:52:04.340Z,7.20
2019-01-08T19:54:33.793Z,7.20
2019-01-08T19:57:03.207Z,7.10
2019-01-08T19:59:32.724Z,7.20
2019-01-08T20:02:02.181Z,7.20
2019-01-08T20:04:31.598Z,7.10
2019-01-08T20:07:01.012Z,7.10
2019-01-08T20:09:30.430Z,7.10
2019-01-08T20:11:59.852Z,7.00
2019-01-08T20:14:30.572Z,7.00
2019-01-08T20:16:59.958Z,6.80
2019-01-08T20:19:29.428Z,6.30
2019-01-08T20:21:58.853Z,6.00
2019-01-08T20:24:28.340Z,5.70
2019-01-08T20:26:58.662Z,5.50
2019-01-08T20:29:28.081Z,5.40
2019-01-08T20:31:57.483Z,5.30
2019-01-08T20:34:27.069Z,5.30
2019-01-08T20:36:57.951Z,5.30
2019-01-08T20:39:27.479Z,5.30
2019-01-08T20:41:56.867Z,5.30
2019-01-08T20:44:26.287Z,5.40
2019-01-08T20:46:55.707Z,5.40
2019-01-08T20:49:25.150Z,5.40
2019-01-08T20:51:54.488Z,5.50
2019-01-08T20:54:23.930Z,5.60
2019-01-08T20:56:53.294Z,5.60
2019-01-08T20:59:22.697Z,5.70
2019-01-08T21:01:52.100Z,5.70
2019-01-08T21:04:23.837Z,5.80
2019-01-08T21:06:53.220Z,5.90
2019-01-08T21:09:22.590Z,5.90
2019-01-08T21:11:51.980Z,5.90
2019-01-08T21:14:21.405Z,6.00
2019-01-08T21:16:50.845Z,6.00
2019-01-08T21:19:20.241Z,6.00
2019-01-08T21:21:49.651Z,6.00
2019-01-08T21:24:28.087Z,6.00
2019-01-08T21:26:50.080Z,6.10
2019-01-08T21:29:19.433Z,6.00
2019-01-08T21:31:48.877Z,5.90
2019-01-08T21:34:18.242Z,5.80
2019-01-08T21:36:47.722Z,5.80
2019-01-08T21:39:17.076Z,5.70
2019-01-08T21:41:46.447Z,5.70
2019-01-08T21:44:15.805Z,5.80
2019-01-08T21:46:45.185Z,5.80
2019-01-08T21:49:17.272Z,5.80
2019-01-08T21:51:46.695Z,5.80
2019-01-08T21:54:16.087Z,5.90
2019-01-08T21:56:45.411Z,5.90
2019-01-08T21:59:14.763Z,6.00
2019-01-08T22:01:44.127Z,6.00
2019-01-08T22:04:13.511Z,6.00
2019-01-08T22:06:42.913Z,6.00
2019-01-08T22:09:12.238Z,6.00
2019-01-08T22:11:41.532Z,6.00
2019-01-08T22:14:10.765Z,6.00
2019-01-08T22:16:40.196Z,6.00
2019-01-08T22:19:09.660Z,5.90
2019-01-08T22:21:39.114Z,5.90
2019-01-08T22:24:08.532Z,5.90
2019-01-08T22:26:37.982Z,5.90
2019-01-08T22:29:07.322Z,5.90
2019-01-08T22:31:36.722Z,5.90
2019-01-08T22:34:05.960Z,5.90
2019-01-08T22:36:35.168Z,5.90
2019-01-08T22:39:05.184Z,6.00
2019-01-08T22:41:34.695Z,6.00
2019-01-08T22:44:04.167Z,6.00
2019-01-08T22:46:33.510Z,6.00
2019-01-08T22:49:02.808Z,6.00
2019-01-08T22:51:32.124Z,6.00
2019-01-08T22:54:01.459Z,6.00
2019-01-08T22:56:30.843Z,6.00
2019-01-08T22:59:00.576Z,6.00
2019-01-08T23:01:40.767Z,5.90
2019-01-08T23:04:12.421Z,5.90
2019-01-08T23:06:41.799Z,5.80
2019-01-08T23:09:12.091Z,5.80
2019-01-08T23:11:41.434Z,5.80
2019-01-08T23:14:10.809Z,5.70
2019-01-08T23:16:40.222Z,5.70
2019-01-08T23:19:09.632Z,5.70
2019-01-08T23:21:40.101Z,5.70
2019-01-08T23:24:09.588Z,5.70
2019-01-08T23:26:38.886Z,5.70
2019-01-08T23:29:08.264Z,5.60
2019-01-08T23:31:37.676Z,5.50
2019-01-08T23:34:07.014Z,5.50
2019-01-08T23:36:36.391Z,5.40
2019-01-08T23:39:07.965Z,5.50
2019-01-08T23:41:37.380Z,5.40
2019-01-08T23:44:06.748Z,5.40
2019-01-08T23:46:36.093Z,5.40
2019-01-08T23:49:05.531Z,5.40
2019-01-08T23:51:34.880Z,5.40
2019-01-08T23:54:04.845Z,5.40
2019-01-08T23:56:35.405Z,5.30
2019-01-08T23:59:04.774Z,5.40
